createdAt,value
2024-04-01T00:00:09.204Z,69.33
2024-04-01T00:01:09.248Z,71.70
2024-04-01T00:02:09.303Z,71.24
2024-04-01T00:03:09.735Z,75.23
2024-04-01T00:04:09.410Z,73.68
2024-04-01T00:05:09.430Z,70.13
2024-04-01T00:06:09.493Z,76.11
2024-04-01T00:07:09.546Z,72.87
2024-04-01T00:08:09.595Z,70.24
2024-04-01T00:09:09.615Z,73.81
2024-04-01T00:10:09.676Z,72.85
2024-04-01T00:11:09.707Z,72.30
2024-04-01T00:12:09.764Z,71.08
2024-04-01T00:13:10.235Z,71.97
2024-04-01T00:14:09.849Z,73.37
2024-04-01T00:15:09.906Z,71.94
2024-04-01T00:16:09.938Z,72.76
2024-04-01T00:17:09.992Z,69.21
2024-04-01T00:18:10.035Z,70.35
2024-04-01T00:19:10.097Z,74.04
2024-04-01T00:20:10.111Z,74.79
2024-04-01T00:21:10.166Z,80.84
2024-04-01T00:22:10.206Z,78.82
2024-04-01T00:23:10.747Z,76.38
2024-04-01T00:24:10.316Z,80.41
2024-04-01T00:25:10.350Z,74.23
2024-04-01T00:26:10.369Z,81.30
2024-04-01T00:27:10.390Z,77.71
2024-04-01T00:28:10.744Z,80.44
2024-04-01T00:29:10.469Z,85.71
2024-04-01T00:30:10.522Z,93.45
2024-04-01T00:31:10.594Z,93.61
2024-04-01T00:32:12.310Z,92.77
2024-04-01T00:33:10.606Z,100.47
2024-04-01T00:34:10.618Z,90.21
2024-04-01T00:35:10.626Z,96.65
2024-04-01T00:36:10.624Z,92.33
2024-04-01T00:37:10.631Z,90.28
2024-04-01T00:38:10.752Z,92.12
2024-04-01T00:39:10.604Z,95.59
2024-04-01T00:40:10.614Z,96.89
2024-04-01T00:41:10.645Z,92.58
2024-04-01T00:42:10.615Z,95.28
2024-04-01T00:43:10.644Z,88.78
2024-04-01T00:44:10.644Z,95.62
2024-04-01T00:45:10.640Z,88.54
2024-04-01T00:46:10.655Z,86.29
2024-04-01T00:47:10.649Z,82.96
2024-04-01T00:48:10.645Z,86.58
2024-04-01T00:49:11.538Z,89.43
2024-04-01T00:50:10.647Z,81.47
2024-04-01T00:51:10.685Z,85.61
2024-04-01T00:52:10.667Z,86.38
2024-04-01T00:53:10.754Z,89.51
2024-04-01T00:54:10.651Z,86.84
2024-04-01T00:55:10.660Z,88.17
2024-04-01T00:56:10.676Z,92.20
2024-04-01T00:57:10.645Z,94.56
2024-04-01T00:58:10.659Z,90.26
2024-04-01T00:59:10.692Z,94.76
2024-04-01T01:00:10.641Z,93.55
2024-04-01T01:01:10.662Z,88.52
2024-04-01T01:02:10.662Z,93.96
2024-04-01T01:03:10.748Z,94.39
2024-04-01T01:04:10.656Z,98.71
2024-04-01T01:05:10.673Z,94.65
2024-04-01T01:06:10.650Z,96.12
2024-04-01T01:07:10.680Z,98.70
2024-04-01T01:08:10.750Z,104.71
2024-04-01T01:09:10.749Z,97.38
2024-04-01T01:10:10.804Z,101.99
2024-04-01T01:11:10.862Z,95.59
2024-04-01T01:12:10.882Z,96.15
2024-04-01T01:13:10.892Z,104.46
2024-04-01T01:14:10.933Z,108.45
2024-04-01T01:15:10.960Z,105.78
2024-04-01T01:16:10.972Z,111.98
2024-04-01T01:17:11.015Z,113.29
2024-04-01T01:18:11.066Z,115.79
2024-04-01T01:19:11.080Z,115.06
2024-04-01T01:20:11.107Z,125.17
2024-04-01T01:21:11.147Z,119.53
2024-04-01T01:22:11.206Z,118.36
2024-04-01T01:23:11.203Z,123.04
2024-04-01T01:24:11.276Z,126.40
2024-04-01T01:25:11.304Z,128.78
2024-04-01T01:26:11.286Z,133.80
2024-04-01T01:27:11.326Z,134.16
2024-04-01T01:28:11.778Z,143.88
2024-04-01T01:29:11.348Z,144.95
2024-04-01T01:30:11.419Z,146.78
2024-04-01T01:31:11.374Z,148.02
2024-04-01T01:32:11.437Z,145.79
2024-04-01T01:33:11.741Z,147.83
2024-04-01T01:34:11.439Z,145.44
2024-04-01T01:35:11.507Z,144.48
2024-04-01T01:36:11.513Z,143.83
2024-04-01T01:37:11.510Z,146.55
2024-04-01T01:38:11.583Z,149.30
2024-04-01T01:39:11.577Z,146.23
2024-04-01T01:40:11.593Z,144.94
2024-04-01T01:41:11.599Z,144.39
2024-04-01T01:42:11.634Z,140.14
2024-04-01T01:43:11.776Z,140.41
2024-04-01T01:44:11.675Z,135.62
2024-04-01T01:45:11.689Z,142.21
2024-04-01T01:46:11.740Z,138.74
2024-04-01T01:47:11.739Z,134.48
2024-04-01T01:48:12.260Z,133.63
2024-04-01T01:49:11.803Z,124.34
2024-04-01T01:50:11.830Z,128.08
2024-04-01T01:51:11.838Z,126.23
2024-04-01T01:52:11.877Z,137.83
2024-04-01T01:53:11.925Z,137.63
2024-04-01T01:54:11.939Z,136.99
2024-04-01T01:55:11.970Z,140.24
2024-04-01T01:56:12.006Z,142.17
2024-04-01T01:57:12.026Z,143.03
2024-04-01T01:58:12.031Z,139.68
2024-04-01T01:59:12.052Z,141.12
2024-04-01T02:00:12.088Z,141.14
2024-04-01T02:01:12.101Z,137.87
2024-04-01T02:02:12.095Z,139.27
2024-04-01T02:03:13.588Z,134.14
2024-04-01T02:04:12.371Z,127.33
2024-04-01T02:05:12.395Z,138.06
2024-04-01T02:06:12.421Z,131.29
2024-04-01T02:07:12.425Z,137.17
2024-04-01T02:08:12.453Z,134.68
2024-04-01T02:09:12.454Z,138.73
2024-04-01T02:10:12.464Z,140.63
2024-04-01T02:11:12.483Z,142.04
2024-04-01T02:12:12.544Z,144.25
2024-04-01T02:13:12.792Z,143.36
2024-04-01T02:14:12.566Z,140.82
2024-04-01T02:15:12.591Z,136.87
2024-04-01T02:16:12.618Z,140.28
2024-04-01T02:17:12.649Z,140.69
2024-04-01T02:18:12.781Z,144.82
2024-04-01T02:19:12.694Z,147.33
2024-04-01T02:20:12.700Z,146.76
2024-04-01T02:21:12.715Z,142.90
2024-04-01T02:22:12.715Z,145.65
2024-04-01T02:23:12.718Z,142.05
2024-04-01T02:24:12.723Z,141.80
2024-04-01T02:25:12.737Z,145.72
2024-04-01T02:26:12.781Z,139.59
2024-04-01T02:27:12.772Z,143.74
2024-04-01T02:28:12.796Z,147.72
2024-04-01T02:29:12.818Z,148.45
2024-04-01T02:30:12.821Z,148.19
2024-04-01T02:31:12.824Z,158.00
2024-04-01T02:32:12.860Z,151.01
2024-04-01T02:33:13.290Z,145.99
2024-04-01T02:34:12.905Z,144.48
2024-04-01T02:35:12.900Z,141.37
2024-04-01T02:36:12.918Z,141.84
2024-04-01T02:37:12.921Z,142.40
2024-04-01T02:38:12.966Z,144.55
2024-04-01T02:39:12.971Z,145.07
2024-04-01T02:40:12.992Z,145.27
2024-04-01T02:41:12.994Z,144.92
2024-04-01T02:42:13.016Z,150.17
2024-04-01T02:43:13.062Z,151.07
2024-04-01T02:44:13.056Z,147.24
2024-04-01T02:45:13.082Z,149.29
2024-04-01T02:46:13.140Z,149.02
2024-04-01T02:47:13.164Z,151.43
2024-04-01T02:48:13.163Z,144.68
2024-04-01T02:49:13.158Z,143.39
2024-04-01T02:50:13.215Z,143.10
2024-04-01T02:51:13.221Z,142.26
2024-04-01T02:52:13.246Z,137.64
2024-04-01T02:53:13.251Z,139.22
2024-04-01T02:54:13.300Z,139.86
2024-04-01T02:55:13.288Z,140.23
2024-04-01T02:56:13.328Z,137.40
2024-04-01T02:57:13.373Z,142.16
2024-04-01T02:58:13.377Z,141.09
2024-04-01T02:59:13.423Z,138.59
2024-04-01T03:00:13.433Z,139.58
2024-04-01T03:01:13.472Z,143.71
2024-04-01T03:02:13.480Z,141.98
2024-04-01T03:03:13.507Z,145.65
2024-04-01T03:04:13.513Z,140.64
2024-04-01T03:05:13.530Z,142.34
2024-04-01T03:06:13.575Z,147.60
2024-04-01T03:07:13.563Z,140.67
2024-04-01T03:08:13.791Z,139.13
2024-04-01T03:09:13.599Z,137.24
2024-04-01T03:10:13.627Z,139.52
2024-04-01T03:11:13.643Z,137.36
2024-04-01T03:12:13.668Z,134.64
2024-04-01T03:13:13.695Z,137.50
2024-04-01T03:14:13.765Z,141.98
2024-04-01T03:15:13.701Z,143.00
2024-04-01T03:16:13.734Z,144.44
2024-04-01T03:17:13.823Z,150.71
2024-04-01T03:18:14.306Z,149.43
2024-04-01T03:19:13.794Z,155.80
2024-04-01T03:20:13.839Z,158.18
2024-04-01T03:21:13.850Z,158.19
2024-04-01T03:22:13.849Z,158.80
2024-04-01T03:23:13.876Z,166.24
2024-04-01T03:24:13.877Z,164.81
2024-04-01T03:25:13.907Z,168.40
2024-04-01T03:26:13.940Z,168.24
2024-04-01T03:27:13.941Z,168.83
2024-04-01T03:28:13.965Z,172.69
2024-04-01T03:29:13.971Z,177.82
2024-04-01T03:30:13.976Z,184.27
2024-04-01T03:31:14.012Z,183.70
2024-04-01T03:32:14.013Z,189.01
2024-04-01T03:33:14.080Z,178.39
2024-04-01T03:34:14.041Z,183.61
2024-04-01T03:35:14.053Z,176.98
2024-04-01T03:36:14.027Z,187.84
2024-04-01T03:37:14.072Z,187.92
2024-04-01T03:38:14.319Z,183.60
2024-04-01T03:39:14.087Z,188.47
2024-04-01T03:40:14.098Z,187.73
2024-04-01T03:41:14.088Z,188.05
2024-04-01T03:42:14.073Z,188.47
2024-04-01T03:43:14.125Z,190.34
2024-04-01T03:44:14.070Z,191.51
2024-04-01T03:45:14.089Z,197.14
2024-04-01T03:46:14.099Z,200.00
2024-04-01T03:47:14.095Z,199.02
2024-04-01T03:48:14.301Z,197.61
2024-04-01T03:49:14.110Z,197.71
2024-04-01T03:50:14.109Z,198.54
2024-04-01T03:51:14.100Z,195.95
2024-04-01T03:52:14.103Z,192.87
2024-04-01T03:53:14.129Z,196.27
2024-04-01T03:54:14.120Z,191.08
2024-04-01T03:55:14.121Z,191.00
2024-04-01T03:56:14.126Z,192.83
2024-04-01T03:57:14.140Z,191.66
2024-04-01T03:58:14.332Z,191.81
2024-04-01T03:59:14.149Z,191.47
2024-04-01T04:00:14.147Z,189.63
2024-04-01T04:01:14.167Z,189.71
2024-04-01T04:02:14.194Z,192.09
2024-04-01T04:03:14.202Z,185.39
2024-04-01T04:04:14.188Z,186.57
2024-04-01T04:05:14.185Z,184.77
2024-04-01T04:06:14.201Z,188.78
2024-04-01T04:07:14.223Z,189.44
2024-04-01T04:08:14.207Z,186.77
2024-04-01T04:09:14.222Z,188.71
2024-04-01T04:10:14.223Z,184.24
2024-04-01T04:11:14.239Z,185.79
2024-04-01T04:12:14.244Z,185.39
2024-04-01T04:13:14.331Z,188.00
2024-04-01T04:14:14.263Z,187.65
2024-04-01T04:15:14.265Z,190.75
2024-04-01T04:16:14.273Z,189.94
2024-04-01T04:17:14.284Z,189.36
2024-04-01T04:18:14.303Z,190.01
2024-04-01T04:19:14.291Z,192.96
2024-04-01T04:20:14.319Z,191.39
2024-04-01T04:21:14.313Z,186.99
2024-04-01T04:22:14.316Z,180.91
2024-04-01T04:23:14.334Z,180.72
2024-04-01T04:24:14.336Z,184.58
2024-04-01T04:25:14.334Z,183.15
2024-04-01T04:26:14.336Z,185.43
2024-04-01T04:27:14.349Z,187.38
2024-04-01T04:28:14.366Z,189.30
2024-04-01T04:29:14.364Z,194.17
2024-04-01T04:30:14.372Z,195.48
2024-04-01T04:31:14.391Z,193.75
2024-04-01T04:32:14.404Z,192.02
2024-04-01T04:33:14.407Z,189.98
2024-04-01T04:34:14.368Z,190.04
2024-04-01T04:35:14.406Z,185.38
2024-04-01T04:36:14.388Z,187.28
2024-04-01T04:37:14.407Z,184.62
2024-04-01T04:38:14.394Z,183.70
2024-04-01T04:39:14.399Z,185.50
2024-04-01T04:40:14.425Z,185.31
2024-04-01T04:41:14.430Z,186.93
2024-04-01T04:42:14.441Z,191.35
2024-04-01T04:43:14.434Z,193.20
2024-04-01T04:44:14.454Z,191.81
2024-04-01T04:45:21.719Z,50.00
2024-04-01T04:46:21.715Z,50.00
2024-04-01T04:47:21.721Z,50.00
2024-04-01T04:48:21.728Z,50.00
2024-04-01T04:49:21.752Z,50.00
2024-04-01T04:50:21.760Z,52.63
2024-04-01T04:51:21.766Z,52.85
2024-04-01T04:52:23.067Z,55.96
2024-04-01T04:53:21.729Z,55.57
2024-04-01T04:54:21.776Z,58.45
2024-04-01T04:55:21.728Z,62.93
2024-04-01T04:56:21.756Z,60.96
2024-04-01T04:57:21.729Z,61.36
2024-04-01T04:58:21.813Z,63.78
2024-04-01T04:59:21.728Z,64.77
2024-04-01T05:00:21.846Z,62.50
2024-04-01T05:01:21.720Z,61.62
2024-04-01T05:02:21.744Z,59.90
2024-04-01T05:03:21.749Z,64.04
2024-04-01T05:04:21.761Z,65.65
2024-04-01T05:05:21.745Z,67.96
2024-04-01T05:06:21.761Z,69.10
2024-04-01T05:07:21.734Z,66.73
2024-04-01T05:08:21.764Z,68.24
2024-04-01T05:09:21.791Z,69.25
2024-04-01T05:10:21.758Z,68.79
2024-04-01T05:11:21.808Z,76.47
2024-04-01T05:12:21.804Z,73.65
2024-04-01T05:13:21.823Z,74.77
2024-04-01T05:14:21.733Z,72.62
2024-04-01T05:15:21.757Z,72.38
2024-04-01T05:16:21.755Z,77.65
2024-04-01T05:17:21.777Z,78.12
2024-04-01T05:18:21.951Z,79.10
2024-04-01T05:19:21.814Z,74.48
2024-04-01T05:20:21.857Z,75.33
2024-04-01T05:21:21.849Z,74.87
2024-04-01T05:22:21.877Z,77.25
2024-04-01T05:23:21.916Z,79.41
2024-04-01T05:24:21.931Z,79.95
2024-04-01T05:25:21.967Z,87.15
2024-04-01T05:26:22.009Z,84.61
2024-04-01T05:27:22.073Z,84.26
2024-04-01T05:28:22.098Z,85.71
2024-04-01T05:29:22.118Z,83.53
2024-04-01T05:30:22.120Z,85.29
2024-04-01T05:31:22.181Z,84.45
2024-04-01T05:32:22.186Z,82.34
2024-04-01T05:33:22.195Z,87.00
2024-04-01T05:34:22.184Z,88.62
2024-04-01T05:35:22.200Z,91.24
2024-04-01T05:36:22.205Z,87.46
2024-04-01T05:37:22.210Z,86.03
2024-04-01T05:38:22.220Z,88.83
2024-04-01T05:39:22.200Z,89.71
2024-04-01T05:40:22.210Z,90.92
2024-04-01T05:41:22.216Z,92.13
2024-04-01T05:42:22.226Z,91.77
2024-04-01T05:43:22.236Z,93.76
2024-04-01T05:44:22.240Z,92.30
2024-04-01T05:45:22.256Z,92.42
2024-04-01T05:46:22.257Z,91.90
2024-04-01T05:47:22.240Z,90.99
2024-04-01T05:48:22.250Z,94.48
2024-04-01T05:49:22.325Z,94.89
2024-04-01T05:50:22.283Z,97.86
2024-04-01T05:51:22.290Z,100.57
2024-04-01T05:52:22.294Z,102.87
2024-04-01T05:53:22.343Z,105.84
2024-04-01T05:54:22.332Z,105.23
2024-04-01T05:55:22.350Z,106.15
2024-04-01T05:56:22.390Z,107.01
2024-04-01T05:57:22.387Z,109.60
2024-04-01T05:58:22.859Z,113.24
2024-04-01T05:59:22.472Z,111.87
2024-04-01T06:00:22.481Z,110.25
2024-04-01T06:01:22.522Z,105.91
2024-04-01T06:02:22.532Z,107.52
2024-04-01T06:03:22.584Z,103.52
2024-04-01T06:04:22.555Z,99.60
2024-04-01T06:05:22.548Z,98.66
2024-04-01T06:06:22.541Z,101.05
2024-04-01T06:07:22.552Z,102.88
2024-04-01T06:08:22.589Z,101.57
2024-04-01T06:09:22.572Z,105.51
2024-04-01T06:10:22.623Z,105.08
2024-04-01T06:11:22.570Z,107.56
2024-04-01T06:12:22.605Z,103.22
2024-04-01T06:13:22.877Z,104.09
2024-04-01T06:14:22.600Z,102.06
2024-04-01T06:15:22.606Z,103.65
2024-04-01T06:16:22.630Z,101.12
2024-04-01T06:17:22.611Z,100.16
2024-04-01T06:18:22.695Z,98.74
2024-04-01T06:19:22.686Z,98.50
2024-04-01T06:20:22.666Z,100.97
2024-04-01T06:21:22.655Z,100.12
2024-04-01T06:22:22.676Z,95.00
2024-04-01T06:23:22.673Z,98.41
2024-04-01T06:24:22.668Z,93.34
2024-04-01T06:25:22.699Z,94.65
2024-04-01T06:26:22.700Z,93.62
2024-04-01T06:27:22.736Z,90.41
2024-04-01T06:28:22.726Z,86.11
2024-04-01T06:29:22.753Z,84.76
2024-04-01T06:30:22.737Z,82.99
2024-04-01T06:31:22.767Z,81.83
2024-04-01T06:32:22.753Z,86.53
2024-04-01T06:33:22.776Z,84.85
2024-04-01T06:34:22.777Z,90.87
2024-04-01T06:35:22.795Z,93.08
2024-04-01T06:36:22.789Z,95.93
2024-04-01T06:37:22.812Z,100.54
2024-04-01T06:38:22.828Z,103.30
2024-04-01T06:39:22.850Z,105.27
2024-04-01T06:40:22.874Z,100.95
2024-04-01T06:41:22.900Z,100.27
2024-04-01T06:42:22.963Z,98.84
2024-04-01T06:43:22.997Z,93.91
2024-04-01T06:44:23.033Z,100.34
2024-04-01T06:45:23.071Z,99.71
2024-04-01T06:46:23.142Z,96.52
2024-04-01T06:47:23.114Z,95.52
2024-04-01T06:48:23.155Z,97.80
2024-04-01T06:49:23.158Z,102.93
2024-04-01T06:50:23.228Z,100.68
2024-04-01T06:51:23.259Z,98.43
2024-04-01T06:52:23.309Z,101.57
2024-04-01T06:53:23.355Z,106.93
2024-04-01T06:54:23.357Z,106.15
2024-04-01T06:55:23.401Z,101.94
2024-04-01T06:56:23.423Z,101.11
2024-04-01T06:57:23.481Z,98.63
2024-04-01T06:58:23.520Z,94.24
2024-04-01T06:59:23.537Z,89.30
2024-04-01T07:00:23.569Z,89.88
2024-04-01T07:01:23.573Z,89.66
2024-04-01T07:02:23.576Z,91.97
2024-04-01T07:03:23.639Z,89.07
2024-04-01T07:04:23.670Z,92.27
2024-04-01T07:05:23.688Z,93.90
2024-04-01T07:06:23.727Z,92.40
2024-04-01T07:07:23.764Z,93.27
2024-04-01T07:08:23.776Z,94.46
2024-04-01T07:09:23.833Z,92.38
2024-04-01T07:10:23.859Z,92.69
2024-04-01T07:11:23.908Z,95.19
2024-04-01T07:12:23.910Z,91.28
2024-04-01T07:13:23.964Z,93.00
2024-04-01T07:14:23.988Z,92.11
2024-04-01T07:15:24.001Z,92.04
2024-04-01T07:16:24.029Z,92.00
2024-04-01T07:17:24.073Z,94.48
2024-04-01T07:18:24.127Z,95.76
2024-04-01T07:19:24.175Z,97.17
2024-04-01T07:20:24.194Z,102.32
2024-04-01T07:21:27.449Z,103.79
2024-04-01T07:22:24.256Z,104.00
2024-04-01T07:23:24.313Z,109.90
2024-04-01T07:24:24.271Z,113.44
2024-04-01T07:25:24.254Z,112.87
2024-04-01T07:26:24.249Z,114.49
2024-04-01T07:27:24.268Z,112.47
2024-04-01T07:28:24.268Z,113.07
2024-04-01T07:29:24.290Z,114.93
2024-04-01T07:30:24.294Z,113.01
2024-04-01T07:31:24.274Z,114.53
2024-04-01T07:32:24.305Z,113.79
2024-04-01T07:33:24.257Z,118.89
2024-04-01T07:34:24.403Z,118.71
2024-04-01T07:35:24.294Z,120.47
2024-04-01T07:36:24.289Z,121.15
2024-04-01T07:37:24.280Z,118.62
2024-04-01T07:38:24.287Z,115.79
2024-04-01T07:39:24.405Z,113.28
2024-04-01T07:40:24.276Z,116.09
2024-04-01T07:41:24.290Z,113.20
2024-04-01T07:42:24.291Z,113.92
2024-04-01T07:43:24.305Z,114.48
2024-04-01T07:44:24.301Z,112.09
2024-04-01T07:45:24.286Z,110.49
2024-04-01T07:46:24.287Z,108.28
2024-04-01T07:47:24.302Z,108.89
2024-04-01T07:48:24.335Z,106.89
2024-04-01T07:49:24.353Z,105.85
2024-04-01T07:50:24.310Z,109.57
2024-04-01T07:51:24.325Z,108.04
2024-04-01T07:52:24.315Z,108.66
2024-04-01T07:53:24.310Z,110.75
2024-04-01T07:54:24.336Z,108.54
2024-04-01T07:55:24.319Z,112.12
2024-04-01T07:56:24.315Z,115.27
2024-04-01T07:57:24.320Z,113.14
2024-04-01T07:58:24.327Z,112.83
2024-04-01T07:59:24.372Z,113.90
2024-04-01T08:00:24.314Z,113.94
2024-04-01T08:01:24.318Z,110.08
2024-04-01T08:02:24.344Z,106.45
2024-04-01T08:03:24.315Z,106.21
2024-04-01T08:04:24.316Z,98.79
2024-04-01T08:05:24.388Z,99.73
2024-04-01T08:06:24.406Z,100.49
2024-04-01T08:07:24.426Z,102.07
2024-04-01T08:08:24.455Z,101.17
2024-04-01T08:09:24.917Z,100.15
2024-04-01T08:10:24.595Z,102.93
2024-04-01T08:11:24.630Z,104.89
2024-04-01T08:12:24.680Z,104.39
2024-04-01T08:13:24.752Z,104.45
2024-04-01T08:14:24.799Z,106.34
2024-04-01T08:15:24.874Z,109.09
2024-04-01T08:16:24.911Z,108.74
2024-04-01T08:17:25.002Z,112.60
2024-04-01T08:18:25.060Z,115.40
2024-04-01T08:19:25.512Z,114.01
2024-04-01T08:20:25.238Z,116.86
2024-04-01T08:21:25.262Z,114.27
2024-04-01T08:22:25.354Z,116.50
2024-04-01T08:23:25.394Z,107.94
2024-04-01T08:24:25.471Z,102.34
2024-04-01T08:25:25.514Z,101.68
2024-04-01T08:26:25.557Z,93.94
2024-04-01T08:27:25.574Z,97.79
2024-04-01T08:28:25.615Z,93.11
2024-04-01T08:29:25.902Z,91.22
2024-04-01T08:30:25.658Z,93.24
2024-04-01T08:31:25.699Z,92.44
2024-04-01T08:32:25.702Z,89.46
2024-04-01T08:33:25.707Z,90.79
2024-04-01T08:34:25.974Z,89.60
2024-04-01T08:35:25.762Z,91.33
2024-04-01T08:36:25.853Z,93.11
2024-04-01T08:37:25.866Z,92.15
2024-04-01T08:38:25.902Z,92.74
2024-04-01T08:39:26.414Z,96.93
2024-04-01T08:40:25.988Z,94.72
2024-04-01T08:41:26.070Z,96.68
2024-04-01T08:42:26.103Z,96.44
2024-04-01T08:43:26.160Z,101.01
2024-04-01T08:44:26.420Z,107.67
2024-04-01T08:45:26.252Z,109.63
2024-04-01T08:46:26.308Z,113.00
2024-04-01T08:47:26.383Z,110.50
2024-04-01T08:48:26.435Z,109.31
2024-04-01T08:49:26.477Z,115.13
2024-04-01T08:50:28.825Z,115.95
2024-04-01T08:51:26.558Z,113.23
2024-04-01T08:52:26.572Z,115.49
2024-04-01T08:53:26.571Z,118.10
2024-04-01T08:54:26.908Z,118.49
2024-04-01T08:55:26.587Z,119.14
2024-04-01T08:56:26.558Z,118.62
2024-04-01T08:57:26.567Z,114.85
2024-04-01T08:58:26.572Z,108.09
2024-04-01T08:59:26.544Z,107.59
2024-04-01T09:00:26.561Z,106.95
2024-04-01T09:01:26.558Z,109.79
2024-04-01T09:02:26.595Z,110.96
2024-04-01T09:03:26.590Z,111.96
2024-04-01T09:04:26.582Z,112.55
2024-04-01T09:05:26.595Z,116.72
2024-04-01T09:06:26.557Z,117.94
2024-04-01T09:07:26.579Z,121.65
2024-04-01T09:08:26.585Z,120.74
2024-04-01T09:09:26.989Z,121.67
2024-04-01T09:10:26.591Z,121.64
2024-04-01T09:11:26.578Z,122.89
2024-04-01T09:12:26.599Z,124.82
2024-04-01T09:13:26.611Z,125.20
2024-04-01T09:14:26.928Z,123.40
2024-04-01T09:15:26.597Z,127.33
2024-04-01T09:16:26.595Z,127.97
2024-04-01T09:17:26.594Z,131.68
2024-04-01T09:18:26.574Z,131.22
2024-04-01T09:19:26.617Z,131.12
2024-04-01T09:20:26.698Z,134.57
2024-04-01T09:21:26.754Z,134.46
2024-04-01T09:22:26.814Z,132.24
2024-04-01T09:23:26.899Z,129.38
2024-04-01T09:24:26.987Z,130.40
2024-04-01T09:25:27.075Z,131.80
2024-04-01T09:26:27.122Z,133.44
2024-04-01T09:27:27.187Z,133.22
2024-04-01T09:28:27.253Z,132.90
2024-04-01T09:29:27.354Z,133.54
2024-04-01T09:30:27.415Z,134.18
2024-04-01T09:31:27.462Z,133.94
2024-04-01T09:32:27.553Z,136.20
2024-04-01T09:33:27.600Z,136.62
2024-04-01T09:34:27.690Z,136.17
2024-04-01T09:35:27.772Z,137.34
2024-04-01T09:36:27.836Z,137.95
2024-04-01T09:37:27.923Z,138.37
2024-04-01T09:38:27.981Z,138.06
2024-04-01T09:39:29.576Z,139.82
2024-04-01T09:40:28.051Z,142.06
2024-04-01T09:41:28.072Z,142.91
2024-04-01T09:42:28.064Z,140.12
2024-04-01T09:43:42.461Z,145.07
2024-04-01T09:44:29.096Z,143.04
2024-04-01T09:45:28.088Z,145.19
2024-04-01T09:46:28.039Z,144.27
2024-04-01T09:47:28.123Z,142.97
2024-04-01T09:48:28.062Z,141.22
2024-04-01T09:49:28.083Z,138.45
2024-04-01T09:50:28.096Z,137.06
2024-04-01T09:51:28.089Z,140.38
2024-04-01T09:52:28.166Z,137.52
2024-04-01T09:53:28.237Z,137.16
2024-04-01T09:54:28.339Z,137.61
2024-04-01T09:55:28.385Z,139.05
2024-04-01T09:56:28.456Z,135.82
2024-04-01T09:57:35.549Z,137.39
2024-04-01T09:58:29.529Z,136.41
2024-04-01T09:59:28.537Z,132.57
2024-04-01T10:00:28.531Z,130.38
2024-04-01T10:01:28.535Z,130.20
2024-04-01T10:02:28.563Z,131.92
2024-04-01T10:03:28.529Z,130.64
2024-04-01T10:04:28.558Z,128.12
2024-04-01T10:05:28.599Z,129.77
2024-04-01T10:06:28.675Z,126.03
2024-04-01T10:07:28.759Z,118.61
2024-04-01T10:08:28.850Z,119.52
2024-04-01T10:09:28.890Z,113.01
2024-04-01T10:10:28.922Z,111.77
2024-04-01T10:11:29.008Z,109.41
2024-04-01T10:12:29.128Z,109.47
2024-04-01T10:13:29.155Z,110.36
2024-04-01T10:14:29.227Z,108.69
2024-04-01T10:15:29.286Z,109.51
2024-04-01T10:16:29.356Z,106.77
2024-04-01T10:17:29.433Z,105.05
2024-04-01T10:18:29.496Z,100.93
2024-04-01T10:19:29.546Z,100.18
2024-04-01T10:20:29.628Z,100.62
2024-04-01T10:21:29.657Z,96.22
2024-04-01T10:22:29.713Z,94.94
2024-04-01T10:23:29.739Z,93.86
2024-04-01T10:24:29.957Z,93.18
2024-04-01T10:25:29.849Z,97.06
2024-04-01T10:26:29.939Z,98.74
2024-04-01T10:27:30.006Z,97.81
2024-04-01T10:28:30.088Z,101.48
2024-04-01T10:29:30.132Z,102.16
2024-04-01T10:30:30.203Z,95.61
2024-04-01T10:31:30.390Z,97.33
2024-04-01T10:32:30.324Z,90.75
2024-04-01T10:33:30.419Z,91.41
2024-04-01T10:34:30.502Z,87.23
2024-04-01T10:35:30.595Z,85.99
2024-04-01T10:36:31.039Z,85.45
2024-04-01T10:37:30.697Z,85.28
2024-04-01T10:38:30.778Z,84.69
2024-04-01T10:39:30.820Z,82.90
2024-04-01T10:40:30.880Z,82.02
2024-04-01T10:41:30.920Z,82.90
2024-04-01T10:42:33.508Z,82.80
2024-04-01T10:43:30.962Z,85.54
2024-04-01T10:44:30.988Z,86.19
2024-04-01T10:45:31.001Z,86.12
2024-04-01T10:46:30.999Z,92.31
2024-04-01T10:47:31.005Z,88.54
2024-04-01T10:48:30.986Z,84.61
2024-04-01T10:49:31.001Z,85.34
2024-04-01T10:50:30.995Z,80.26
2024-04-01T10:51:31.036Z,73.57
2024-04-01T10:52:30.988Z,70.11
2024-04-01T10:53:30.974Z,71.36
2024-04-01T10:54:30.977Z,71.57
2024-04-01T10:55:30.986Z,66.51
2024-04-01T10:56:30.995Z,67.29
2024-04-01T10:57:31.008Z,65.44
2024-04-01T10:58:31.027Z,65.44
2024-04-01T10:59:31.098Z,61.21
2024-04-01T11:00:31.032Z,58.68
2024-04-01T11:01:30.983Z,61.87
2024-04-01T11:02:31.008Z,63.94
2024-04-01T11:03:31.013Z,67.15
2024-04-01T11:04:31.011Z,66.62
2024-04-01T11:05:31.002Z,71.03
2024-04-01T11:06:31.007Z,68.79
2024-04-01T11:07:31.011Z,65.23
2024-04-01T11:08:31.024Z,65.88
2024-04-01T11:09:31.027Z,66.21
2024-04-01T11:10:31.440Z,66.19
2024-04-01T11:11:37.539Z,65.49
2024-04-01T11:12:32.003Z,65.54
2024-04-01T11:13:31.035Z,65.61
2024-04-01T11:14:31.473Z,66.39
2024-04-01T11:15:31.026Z,67.77
2024-04-01T11:16:31.030Z,64.66
2024-04-01T11:17:31.052Z,63.51
2024-04-01T11:18:31.013Z,61.84
2024-04-01T11:19:31.066Z,59.41
2024-04-01T11:20:31.023Z,56.70
2024-04-01T11:21:31.049Z,56.78
2024-04-01T11:22:31.071Z,53.86
2024-04-01T11:23:31.044Z,55.13
2024-04-01T11:24:31.053Z,52.28
2024-04-01T11:25:31.036Z,53.05
2024-04-01T11:26:31.056Z,52.12
2024-04-01T11:27:31.058Z,53.42
2024-04-01T11:28:31.048Z,52.29
2024-04-01T11:29:33.320Z,54.09
2024-04-01T11:30:31.054Z,50.21
2024-04-01T11:31:31.066Z,54.32
2024-04-01T11:32:31.079Z,52.49
2024-04-01T11:33:31.097Z,54.06
2024-04-01T11:34:31.118Z,54.91
2024-04-01T11:35:32.044Z,58.04
2024-04-01T11:36:31.213Z,57.89
2024-04-01T11:37:31.242Z,61.40
2024-04-01T11:38:31.302Z,63.18
2024-04-01T11:39:31.467Z,68.41
2024-04-01T11:40:31.384Z,70.64
2024-04-01T11:41:31.461Z,73.09
2024-04-01T11:42:31.480Z,65.84
2024-04-01T11:43:31.537Z,65.11
2024-04-01T11:44:43.092Z,63.86
2024-04-01T11:45:32.617Z,63.97
2024-04-01T11:46:31.619Z,64.46
2024-04-01T11:47:31.635Z,64.04
2024-04-01T11:48:31.613Z,66.79
2024-04-01T11:49:31.620Z,67.93
2024-04-01T11:50:31.608Z,69.42
2024-04-01T11:51:31.642Z,71.73
2024-04-01T11:52:31.621Z,70.11
2024-04-01T11:53:31.634Z,69.72
2024-04-01T11:54:31.653Z,66.13
2024-04-01T11:55:31.731Z,64.35
2024-04-01T11:56:31.783Z,63.81
2024-04-01T11:57:31.846Z,65.07
2024-04-01T11:58:31.910Z,65.79
2024-04-01T11:59:32.087Z,66.50
2024-04-01T12:00:32.085Z,67.67
2024-04-01T12:01:32.093Z,67.50
2024-04-01T12:02:32.153Z,69.21
2024-04-01T12:03:32.220Z,67.64
2024-04-01T12:04:32.463Z,68.89
2024-04-01T12:05:32.367Z,72.93
2024-04-01T12:06:32.456Z,78.23
2024-04-01T12:07:32.502Z,77.18
2024-04-01T12:08:34.987Z,81.24
2024-04-01T12:09:32.568Z,84.32
2024-04-01T12:10:32.584Z,82.71
2024-04-01T12:11:32.582Z,86.12
2024-04-01T12:12:32.560Z,88.13
2024-04-01T12:13:32.577Z,88.92
2024-04-01T12:14:32.570Z,91.74
2024-04-01T12:15:32.575Z,90.93
2024-04-01T12:16:32.585Z,92.05
2024-04-01T12:17:32.590Z,94.94
2024-04-01T12:18:32.615Z,91.99
2024-04-01T12:19:32.609Z,89.21
2024-04-01T12:20:35.399Z,87.59
2024-04-01T12:21:32.644Z,86.98
2024-04-01T12:22:32.614Z,88.06
2024-04-01T12:23:32.589Z,82.71
2024-04-01T12:24:32.606Z,81.02
2024-04-01T12:25:32.590Z,80.78
2024-04-01T12:26:32.592Z,80.11
2024-04-01T12:27:32.600Z,77.79
2024-04-01T12:28:32.598Z,79.27
2024-04-01T12:29:32.989Z,77.83
2024-04-01T12:30:34.680Z,77.15
2024-04-01T12:31:32.592Z,77.26
2024-04-01T12:32:32.697Z,77.32
2024-04-01T12:33:32.603Z,76.86
2024-04-01T12:34:32.613Z,72.63
2024-04-01T12:35:32.617Z,68.11
2024-04-01T12:36:35.413Z,63.61
2024-04-01T12:37:32.617Z,63.76
2024-04-01T12:38:32.605Z,64.12
2024-04-01T12:39:32.608Z,64.07